sensor_id;sensor_type;location;lat;lon;timestamp;pressure;altitude;pressure_sealevel;temperature;humidity
76627;BME280;65519;53.230;10.390;2023-08-06T00:01:49;100441.69;;;16.55;91.05
76627;BME280;65519;53.230;10.390;2023-08-06T00:04:14;100441.03;;;16.58;91.07
76627;BME280;65519;53.230;10.390;2023-08-06T00:06:40;100441.75;;;16.63;90.52
76627;BME280;65519;53.230;10.390;2023-08-06T00:09:05;100441.50;;;16.51;90.73
76627;BME280;65519;53.230;10.390;2023-08-06T00:11:31;100439.03;;;16.72;90.24
76627;BME280;65519;53.230;10.390;2023-08-06T00:13:57;100439.59;;;16.60;90.88
76627;BME280;65519;53.230;10.390;2023-08-06T00:16:22;100440.94;;;16.63;90.06
76627;BME280;65519;53.230;10.390;2023-08-06T00:18:48;100448.47;;;16.57;90.32
76627;BME280;65519;53.230;10.390;2023-08-06T00:21:13;100450.25;;;16.53;90.39
76627;BME280;65519;53.230;10.390;2023-08-06T00:23:39;100449.75;;;16.51;91.09
76627;BME280;65519;53.230;10.390;2023-08-06T00:26:05;100443.22;;;16.47;90.44
76627;BME280;65519;53.230;10.390;2023-08-06T00:28:30;100447.97;;;16.55;90.46
76627;BME280;65519;53.230;10.390;2023-08-06T00:30:56;100440.28;;;16.66;90.35
76627;BME280;65519;53.230;10.390;2023-08-06T00:33:23;100435.59;;;16.66;89.41
76627;BME280;65519;53.230;10.390;2023-08-06T00:35:48;100439.72;;;16.55;89.94
76627;BME280;65519;53.230;10.390;2023-08-06T00:38:14;100438.47;;;16.61;91.49
76627;BME280;65519;53.230;10.390;2023-08-06T00:40:39;100438.78;;;16.60;91.18
76627;BME280;65519;53.230;10.390;2023-08-06T00:43:05;100432.38;;;16.64;90.79
76627;BME280;65519;53.230;10.390;2023-08-06T00:45:34;100426.38;;;16.62;89.90
76627;BME280;65519;53.230;10.390;2023-08-06T00:48:00;100430.22;;;16.61;90.03
76627;BME280;65519;53.230;10.390;2023-08-06T00:50:26;100429.53;;;16.56;90.66
76627;BME280;65519;53.230;10.390;2023-08-06T00:52:52;100427.47;;;16.61;90.14
76627;BME280;65519;53.230;10.390;2023-08-06T00:55:17;100433.59;;;16.58;89.95
76627;BME280;65519;53.230;10.390;2023-08-06T00:57:43;100430.22;;;16.61;91.40
76627;BME280;65519;53.230;10.390;2023-08-06T01:00:09;100424.66;;;16.53;90.74
76627;BME280;65519;53.230;10.390;2023-08-06T01:02:36;100418.47;;;16.47;90.92
76627;BME280;65519;53.230;10.390;2023-08-06T01:05:02;100412.34;;;16.50;90.43
76627;BME280;65519;53.230;10.390;2023-08-06T01:10:59;100408.59;;;16.46;90.69
76627;BME280;65519;53.230;10.390;2023-08-06T01:13:48;100398.22;;;16.43;90.48
76627;BME280;65519;53.230;10.390;2023-08-06T01:16:20;100399.09;;;16.52;90.46
76627;BME280;65519;53.230;10.390;2023-08-06T01:18:47;100389.81;;;16.48;89.99
76627;BME280;65519;53.230;10.390;2023-08-06T01:21:18;100383.31;;;16.44;89.95
76627;BME280;65519;53.230;10.390;2023-08-06T01:23:45;100381.72;;;16.43;90.54
76627;BME280;65519;53.230;10.390;2023-08-06T01:31:16;100367.28;;;16.37;90.65
76627;BME280;65519;53.230;10.390;2023-08-06T01:33:45;100368.00;;;16.21;91.04
76627;BME280;65519;53.230;10.390;2023-08-06T01:36:11;100366.41;;;16.28;91.11
76627;BME280;65519;53.230;10.390;2023-08-06T01:38:36;100361.22;;;16.27;91.16
76627;BME280;65519;53.230;10.390;2023-08-06T01:41:02;100357.00;;;16.21;91.27
76627;BME280;65519;53.230;10.390;2023-08-06T01:43:27;100353.59;;;16.24;91.37
76627;BME280;65519;53.230;10.390;2023-08-06T01:45:53;100344.38;;;16.20;91.18
76627;BME280;65519;53.230;10.390;2023-08-06T01:48:18;100347.94;;;16.20;91.83
76627;BME280;65519;53.230;10.390;2023-08-06T01:50:44;100335.75;;;16.13;91.48
76627;BME280;65519;53.230;10.390;2023-08-06T01:53:10;100328.84;;;16.24;91.27
76627;BME280;65519;53.230;10.390;2023-08-06T01:55:35;100326.44;;;16.22;91.34
76627;BME280;65519;53.230;10.390;2023-08-06T01:58:01;100312.34;;;16.24;91.84
76627;BME280;65519;53.230;10.390;2023-08-06T02:00:26;100305.06;;;16.19;91.55
76627;BME280;65519;53.230;10.390;2023-08-06T02:02:54;100308.47;;;16.25;90.87
76627;BME280;65519;53.230;10.390;2023-08-06T02:05:19;100305.72;;;16.25;91.85
76627;BME280;65519;53.230;10.390;2023-08-06T02:07:45;100303.75;;;16.17;91.68
76627;BME280;65519;53.230;10.390;2023-08-06T02:10:10;100312.25;;;16.06;91.13
76627;BME280;65519;53.230;10.390;2023-08-06T02:12:36;100298.22;;;16.08;91.61
76627;BME280;65519;53.230;10.390;2023-08-06T02:15:01;100302.00;;;16.21;90.76
76627;BME280;65519;53.230;10.390;2023-08-06T02:17:27;100297.34;;;16.30;90.98
76627;BME280;65519;53.230;10.390;2023-08-06T02:19:52;100299.28;;;16.29;90.92
76627;BME280;65519;53.230;10.390;2023-08-06T02:22:17;100298.28;;;16.25;91.20
76627;BME280;65519;53.230;10.390;2023-08-06T02:24:43;100299.13;;;16.34;91.15
76627;BME280;65519;53.230;10.390;2023-08-06T02:27:09;100299.72;;;16.23;90.85
76627;BME280;65519;53.230;10.390;2023-08-06T02:29:34;100295.63;;;16.12;90.73
76627;BME280;65519;53.230;10.390;2023-08-06T02:32:00;100284.31;;;16.13;90.71
76627;BME280;65519;53.230;10.390;2023-08-06T02:34:27;100283.50;;;16.13;91.27
76627;BME280;65519;53.230;10.390;2023-08-06T02:36:53;100279.88;;;16.03;92.40
76627;BME280;65519;53.230;10.390;2023-08-06T02:39:18;100285.69;;;16.02;92.28
76627;BME280;65519;53.230;10.390;2023-08-06T02:41:44;100284.31;;;16.13;92.45
76627;BME280;65519;53.230;10.390;2023-08-06T02:44:09;100278.81;;;16.13;92.37
76627;BME280;65519;53.230;10.390;2023-08-06T02:46:35;100283.50;;;16.13;92.28
76627;BME280;65519;53.230;10.390;2023-08-06T02:49:00;100283.16;;;16.05;91.06
76627;BME280;65519;53.230;10.390;2023-08-06T02:51:26;100285.38;;;16.03;92.22
76627;BME280;65519;53.230;10.390;2023-08-06T02:53:51;100292.31;;;16.01;91.92
76627;BME280;65519;53.230;10.390;2023-08-06T02:56:19;100286.03;;;16.00;92.58
76627;BME280;65519;53.230;10.390;2023-08-06T02:59:05;100278.91;;;15.99;92.18
76627;BME280;65519;53.230;10.390;2023-08-06T03:01:40;100280.69;;;16.04;91.39
76627;BME280;65519;53.230;10.390;2023-08-06T03:04:14;100271.97;;;16.02;92.25
76627;BME280;65519;53.230;10.390;2023-08-06T03:06:43;100275.22;;;16.04;92.02
76627;BME280;65519;53.230;10.390;2023-08-06T03:09:08;100267.25;;;16.02;91.91
76627;BME280;65519;53.230;10.390;2023-08-06T03:11:34;100267.78;;;16.04;92.21
76627;BME280;65519;53.230;10.390;2023-08-06T03:14:05;100259.72;;;16.08;91.64
76627;BME280;65519;53.230;10.390;2023-08-06T03:16:30;100250.63;;;15.99;91.85
76627;BME280;65519;53.230;10.390;2023-08-06T03:18:56;100248.19;;;15.97;92.42
76627;BME280;65519;53.230;10.390;2023-08-06T03:21:21;100248.03;;;16.02;92.34
76627;BME280;65519;53.230;10.390;2023-08-06T03:23:47;100235.59;;;16.05;92.93
76627;BME280;65519;53.230;10.390;2023-08-06T03:26:14;100234.47;;;16.06;92.10
76627;BME280;65519;53.230;10.390;2023-08-06T03:28:40;100224.56;;;15.96;91.85
76627;BME280;65519;53.230;10.390;2023-08-06T03:31:05;100227.94;;;15.93;92.64
76627;BME280;65519;53.230;10.390;2023-08-06T03:33:37;100234.41;;;15.89;92.67
76627;BME280;65519;53.230;10.390;2023-08-06T03:36:07;100227.81;;;15.98;91.71
76627;BME280;65519;53.230;10.390;2023-08-06T03:38:33;100226.00;;;15.94;92.70
76627;BME280;65519;53.230;10.390;2023-08-06T03:41:01;100220.31;;;15.90;91.74
76627;BME280;65519;53.230;10.390;2023-08-06T03:43:27;100232.13;;;15.91;91.67
76627;BME280;65519;53.230;10.390;2023-08-06T03:45:53;100230.25;;;16.00;92.11
76627;BME280;65519;53.230;10.390;2023-08-06T03:48:19;100226.19;;;15.97;92.68
76627;BME280;65519;53.230;10.390;2023-08-06T03:50:44;100232.50;;;15.98;92.41
76627;BME280;65519;53.230;10.390;2023-08-06T03:53:13;100224.03;;;15.86;92.34
76627;BME280;65519;53.230;10.390;2023-08-06T03:55:38;100213.06;;;15.94;91.26
76627;BME280;65519;53.230;10.390;2023-08-06T03:58:04;100216.44;;;15.91;92.29
76627;BME280;65519;53.230;10.390;2023-08-06T04:00:30;100224.22;;;15.89;92.39
76627;BME280;65519;53.230;10.390;2023-08-06T04:02:56;100220.31;;;15.90;92.48
76627;BME280;65519;53.230;10.390;2023-08-06T04:05:21;100216.94;;;15.93;92.19
76627;BME280;65519;53.230;10.390;2023-08-06T04:07:47;100211.63;;;15.97;92.18
76627;BME280;65519;53.230;10.390;2023-08-06T04:10:13;100216.91;;;15.85;90.87
76627;BME280;65519;53.230;10.390;2023-08-06T04:12:38;100220.22;;;15.73;91.76
76627;BME280;65519;53.230;10.390;2023-08-06T04:15:05;100216.34;;;15.74;92.15
76627;BME280;65519;53.230;10.390;2023-08-06T04:17:30;100226.34;;;15.70;91.94
76627;BME280;65519;53.230;10.390;2023-08-06T04:19:56;100230.91;;;15.75;92.83
76627;BME280;65519;53.230;10.390;2023-08-06T04:22:23;100226.22;;;15.75;91.64
76627;BME280;65519;53.230;10.390;2023-08-06T04:24:49;100216.66;;;15.73;91.88
76627;BME280;65519;53.230;10.390;2023-08-06T04:27:15;100221.84;;;15.74;91.71
76627;BME280;65519;53.230;10.390;2023-08-06T04:29:42;100222.84;;;15.78;90.99
76627;BME280;65519;53.230;10.390;2023-08-06T04:32:09;100224.13;;;15.81;90.41
76627;BME280;65519;53.230;10.390;2023-08-06T04:34:37;100225.09;;;15.76;90.40
76627;BME280;65519;53.230;10.390;2023-08-06T04:37:04;100216.94;;;15.62;92.00
76627;BME280;65519;53.230;10.390;2023-08-06T04:39:30;100216.00;;;15.67;91.67
76627;BME280;65519;53.230;10.390;2023-08-06T04:41:56;100223.56;;;15.61;91.23
76627;BME280;65519;53.230;10.390;2023-08-06T04:44:26;100220.59;;;15.58;92.49
76627;BME280;65519;53.230;10.390;2023-08-06T04:46:51;100214.00;;;15.59;91.72
76627;BME280;65519;53.230;10.390;2023-08-06T04:49:18;100210.13;;;15.60;92.04
76627;BME280;65519;53.230;10.390;2023-08-06T04:51:43;100209.22;;;15.73;91.41
76627;BME280;65519;53.230;10.390;2023-08-06T04:54:09;100208.88;;;15.66;91.73
76627;BME280;65519;53.230;10.390;2023-08-06T04:56:35;100210.50;;;15.67;91.28
76627;BME280;65519;53.230;10.390;2023-08-06T04:59:00;100209.50;;;15.63;91.37
76627;BME280;65519;53.230;10.390;2023-08-06T05:01:26;100214.00;;;15.59;92.13
76627;BME280;65519;53.230;10.390;2023-08-06T05:03:51;100221.66;;;15.70;91.98
76627;BME280;65519;53.230;10.390;2023-08-06T05:06:17;100215.34;;;15.70;91.08
76627;BME280;65519;53.230;10.390;2023-08-06T05:08:42;100213.09;;;15.72;90.76
76627;BME280;65519;53.230;10.390;2023-08-06T05:11:09;100210.97;;;15.69;92.05
76627;BME280;65519;53.230;10.390;2023-08-06T05:13:34;100199.28;;;15.55;92.26
76627;BME280;65519;53.230;10.390;2023-08-06T05:16:00;100208.03;;;15.57;92.81
76627;BME280;65519;53.230;10.390;2023-08-06T05:18:25;100215.31;;;15.61;93.38
76627;BME280;65519;53.230;10.390;2023-08-06T05:20:51;100210.94;;;15.60;92.46
76627;BME280;65519;53.230;10.390;2023-08-06T05:23:16;100209.84;;;15.70;92.24
76627;BME280;65519;53.230;10.390;2023-08-06T05:25:42;100209.50;;;15.63;91.70
76627;BME280;65519;53.230;10.390;2023-08-06T05:28:07;100217.44;;;15.64;92.22
76627;BME280;65519;53.230;10.390;2023-08-06T05:30:33;100220.00;;;15.61;91.98
76627;BME280;65519;53.230;10.390;2023-08-06T05:32:59;100221.75;;;15.57;91.66
76627;BME280;65519;53.230;10.390;2023-08-06T05:35:24;100213.59;;;15.52;91.28
76627;BME280;65519;53.230;10.390;2023-08-06T05:37:50;100211.44;;;15.62;91.22
76627;BME280;65519;53.230;10.390;2023-08-06T05:40:16;100210.66;;;15.70;91.38
76627;BME280;65519;53.230;10.390;2023-08-06T05:42:41;100213.09;;;15.72;91.60
76627;BME280;65519;53.230;10.390;2023-08-06T05:45:07;100209.53;;;15.72;91.40
76627;BME280;65519;53.230;10.390;2023-08-06T05:47:33;100209.44;;;15.77;91.22
76627;BME280;65519;53.230;10.390;2023-08-06T05:49:59;100212.97;;;15.77;91.52
76627;BME280;65519;53.230;10.390;2023-08-06T05:52:24;100205.00;;;15.67;91.19
76627;BME280;65519;53.230;10.390;2023-08-06T05:54:50;100205.38;;;15.74;91.00
76627;BME280;65519;53.230;10.390;2023-08-06T05:57:16;100208.22;;;15.69;88.27
76627;BME280;65519;53.230;10.390;2023-08-06T05:59:42;100195.38;;;15.78;90.08
76627;BME280;65519;53.230;10.390;2023-08-06T06:02:07;100205.22;;;15.79;90.19
76627;BME280;65519;53.230;10.390;2023-08-06T06:04:33;100208.97;;;15.83;89.41
76627;BME280;65519;53.230;10.390;2023-08-06T06:06:58;100206.09;;;15.88;90.59
76627;BME280;65519;53.230;10.390;2023-08-06T06:09:24;100203.81;;;15.90;90.94
76627;BME280;65519;53.230;10.390;2023-08-06T06:11:49;100196.66;;;15.81;88.44
76627;BME280;65519;53.230;10.390;2023-08-06T06:14:16;100207.53;;;15.86;87.35
76627;BME280;65519;53.230;10.390;2023-08-06T06:16:42;100207.53;;;15.86;90.63
76627;BME280;65519;53.230;10.390;2023-08-06T06:19:07;100201.75;;;15.96;88.17
76627;BME280;65519;53.230;10.390;2023-08-06T06:21:33;100194.41;;;15.83;87.99
76627;BME280;65519;53.230;10.390;2023-08-06T06:23:58;100195.91;;;15.89;89.71
76627;BME280;65519;53.230;10.390;2023-08-06T06:26:24;100184.72;;;15.85;89.54
76627;BME280;65519;53.230;10.390;2023-08-06T06:28:49;100194.09;;;15.84;89.17
76627;BME280;65519;53.230;10.390;2023-08-06T06:31:15;100197.38;;;15.95;91.07
76627;BME280;65519;53.230;10.390;2023-08-06T06:33:40;100192.81;;;15.90;90.84
76627;BME280;65519;53.230;10.390;2023-08-06T06:36:06;100192.19;;;15.93;91.36
76627;BME280;65519;53.230;10.390;2023-08-06T06:38:33;100184.44;;;15.95;90.86
76627;BME280;65519;53.230;10.390;2023-08-06T06:40:59;100178.09;;;15.86;90.84
76627;BME280;65519;53.230;10.390;2023-08-06T06:43:25;100179.75;;;15.96;91.23
76627;BME280;65519;53.230;10.390;2023-08-06T06:45:58;100186.06;;;15.96;92.84
76627;BME280;65519;53.230;10.390;2023-08-06T06:48:28;100181.19;;;15.93;92.71
76627;BME280;65519;53.230;10.390;2023-08-06T06:50:53;100182.19;;;15.97;94.29
76627;BME280;65519;53.230;10.390;2023-08-06T06:53:19;100187.41;;;16.08;93.08
76627;BME280;65519;53.230;10.390;2023-08-06T06:55:45;100186.25;;;16.00;93.19
76627;BME280;65519;53.230;10.390;2023-08-06T06:58:10;100179.66;;;16.10;92.61
76627;BME280;65519;53.230;10.390;2023-08-06T07:00:36;100173.66;;;16.08;93.28
76627;BME280;65519;53.230;10.390;2023-08-06T07:03:03;100173.97;;;16.06;91.57
76627;BME280;65519;53.230;10.390;2023-08-06T07:05:28;100182.72;;;16.08;88.66
76627;BME280;65519;53.230;10.390;2023-08-06T07:07:54;100173.47;;;16.04;87.63
76627;BME280;65519;53.230;10.390;2023-08-06T07:10:19;100177.03;;;16.04;88.77
76627;BME280;65519;53.230;10.390;2023-08-06T07:12:45;100175.78;;;16.11;89.26
76627;BME280;65519;53.230;10.390;2023-08-06T07:15:10;100175.91;;;16.05;88.48
76627;BME280;65519;53.230;10.390;2023-08-06T07:17:36;100168.81;;;16.13;89.45
76627;BME280;65519;53.230;10.390;2023-08-06T07:20:02;100178.56;;;16.19;88.16
76627;BME280;65519;53.230;10.390;2023-08-06T07:22:28;100173.84;;;16.11;89.73
76627;BME280;65519;53.230;10.390;2023-08-06T07:24:53;100180.81;;;16.17;90.98
76627;BME280;65519;53.230;10.390;2023-08-06T07:27:19;100175.78;;;16.11;89.42
76627;BME280;65519;53.230;10.390;2023-08-06T07:29:44;100176.13;;;16.18;89.63
76627;BME280;65519;53.230;10.390;2023-08-06T07:32:10;100181.94;;;16.16;88.09
76627;BME280;65519;53.230;10.390;2023-08-06T07:34:35;100180.50;;;16.19;90.18
76627;BME280;65519;53.230;10.390;2023-08-06T07:37:01;100182.44;;;16.18;91.31
76627;BME280;65519;53.230;10.390;2023-08-06T07:39:26;100181.97;;;16.25;91.75
76627;BME280;65519;53.230;10.390;2023-08-06T07:41:53;100181.81;;;16.30;92.87
76627;BME280;65519;53.230;10.390;2023-08-06T07:44:19;100181.53;;;16.40;91.11
76627;BME280;65519;53.230;10.390;2023-08-06T07:46:44;100189.78;;;16.40;92.36
76627;BME280;65519;53.230;10.390;2023-08-06T07:49:10;100192.22;;;16.50;91.18
76627;BME280;65519;53.230;10.390;2023-08-06T07:51:36;100183.66;;;16.52;90.59
76627;BME280;65519;53.230;10.390;2023-08-06T07:54:02;100191.91;;;16.60;90.01
76627;BME280;65519;53.230;10.390;2023-08-06T07:56:28;100185.25;;;16.44;93.29
76627;BME280;65519;53.230;10.390;2023-08-06T07:58:54;100189.16;;;16.43;93.01
76627;BME280;65519;53.230;10.390;2023-08-06T08:01:19;100190.09;;;16.47;91.88
76627;BME280;65519;53.230;10.390;2023-08-06T08:03:45;100188.00;;;16.44;94.29
76627;BME280;65519;53.230;10.390;2023-08-06T08:06:10;100186.72;;;16.50;90.92
76627;BME280;65519;53.230;10.390;2023-08-06T08:08:36;100182.16;;;16.46;94.15
76627;BME280;65519;53.230;10.390;2023-08-06T08:11:04;100187.84;;;16.49;94.00
76627;BME280;65519;53.230;10.390;2023-08-06T08:13:29;100189.31;;;16.55;92.35
76627;BME280;65519;53.230;10.390;2023-08-06T08:15:58;100188.56;;;16.63;90.76
76627;BME280;65519;53.230;10.390;2023-08-06T08:18:24;100182.41;;;16.66;90.58
76627;BME280;65519;53.230;10.390;2023-08-06T08:20:50;100187.59;;;16.68;93.47
76627;BME280;65519;53.230;10.390;2023-08-06T08:23:15;100179.31;;;16.76;93.65
76627;BME280;65519;53.230;10.390;2023-08-06T08:25:41;100190.19;;;16.82;94.07
76627;BME280;65519;53.230;10.390;2023-08-06T08:28:06;100187.44;;;16.82;92.68
76627;BME280;65519;53.230;10.390;2023-08-06T08:30:32;100184.69;;;16.82;91.73
76627;BME280;65519;53.230;10.390;2023-08-06T08:32:57;100186.13;;;16.79;91.56
76627;BME280;65519;53.230;10.390;2023-08-06T08:35:23;100181.78;;;16.87;91.47
76627;BME280;65519;53.230;10.390;2023-08-06T08:37:48;100178.53;;;16.85;89.79
76627;BME280;65519;53.230;10.390;2023-08-06T08:40:15;100181.44;;;16.88;92.43
76627;BME280;65519;53.230;10.390;2023-08-06T08:42:40;100178.22;;;16.95;90.49
76627;BME280;65519;53.230;10.390;2023-08-06T08:45:12;100181.31;;;16.85;90.48
76627;BME280;65519;53.230;10.390;2023-08-06T08:47:40;100182.44;;;16.84;90.36
76627;BME280;65519;53.230;10.390;2023-08-06T08:50:08;100178.38;;;16.90;90.11
76627;BME280;65519;53.230;10.390;2023-08-06T08:52:33;100180.31;;;16.89;90.60
76627;BME280;65519;53.230;10.390;2023-08-06T08:55:01;100180.81;;;16.83;89.74
76627;BME280;65519;53.230;10.390;2023-08-06T08:57:27;100182.75;;;16.73;92.20
76627;BME280;65519;53.230;10.390;2023-08-06T08:59:52;100179.81;;;16.78;92.35
76627;BME280;65519;53.230;10.390;2023-08-06T09:02:21;100176.56;;;16.76;90.74
76627;BME280;65519;53.230;10.390;2023-08-06T09:04:48;100178.88;;;16.83;90.35
76627;BME280;65519;53.230;10.390;2023-08-06T09:07:18;100178.69;;;16.88;90.94
76627;BME280;65519;53.230;10.390;2023-08-06T09:09:46;100174.16;;;16.92;91.34
76627;BME280;65519;53.230;10.390;2023-08-06T09:12:16;100174.84;;;16.98;91.43
76627;BME280;65519;53.230;10.390;2023-08-06T09:14:42;100172.53;;;16.91;90.43
76627;BME280;65519;53.230;10.390;2023-08-06T09:17:08;100175.97;;;16.97;90.81
76627;BME280;65519;53.230;10.390;2023-08-06T09:19:36;100177.09;;;16.87;89.07
76627;BME280;65519;53.230;10.390;2023-08-06T09:22:01;100173.34;;;16.92;89.71
76627;BME280;65519;53.230;10.390;2023-08-06T09:24:27;100174.97;;;16.93;92.99
76627;BME280;65519;53.230;10.390;2023-08-06T09:26:53;100177.41;;;17.03;91.16
76627;BME280;65519;53.230;10.390;2023-08-06T09:29:19;100173.19;;;17.05;89.33
76627;BME280;65519;53.230;10.390;2023-08-06T09:31:47;100175.63;;;17.07;89.75
76627;BME280;65519;53.230;10.390;2023-08-06T09:34:19;100168.66;;;17.09;90.97
76627;BME280;65519;53.230;10.390;2023-08-06T09:36:50;100168.50;;;17.14;92.02
76627;BME280;65519;53.230;10.390;2023-08-06T09:39:18;100162.00;;;17.10;90.59
76627;BME280;65519;53.230;10.390;2023-08-06T09:41:44;100168.16;;;17.16;91.34
76627;BME280;65519;53.230;10.390;2023-08-06T09:44:18;100174.97;;;17.19;91.05
76627;BME280;65519;53.230;10.390;2023-08-06T09:46:55;100178.22;;;17.29;88.90
76627;BME280;65519;53.230;10.390;2023-08-06T09:49:42;100168.81;;;17.30;89.79
76627;BME280;65519;53.230;10.390;2023-08-06T09:52:12;100170.91;;;17.33;90.97
76627;BME280;65519;53.230;10.390;2023-08-06T09:54:38;100173.00;;;17.36;90.28
76627;BME280;65519;53.230;10.390;2023-08-06T09:57:04;100171.88;;;17.37;89.66
76627;BME280;65519;53.230;10.390;2023-08-06T09:59:32;100170.06;;;17.41;88.29
76627;BME280;65519;53.230;10.390;2023-08-06T10:01:58;100167.63;;;17.48;88.93
76627;BME280;65519;53.230;10.390;2023-08-06T10:04:25;100172.81;;;17.50;86.57
76627;BME280;65519;53.230;10.390;2023-08-06T10:06:52;100164.88;;;17.48;87.25
76627;BME280;65519;53.230;10.390;2023-08-06T10:09:18;100168.13;;;17.50;88.33
76627;BME280;65519;53.230;10.390;2023-08-06T10:11:50;100164.03;;;17.57;88.36
76627;BME280;65519;53.230;10.390;2023-08-06T10:14:21;100171.16;;;17.58;87.00
76627;BME280;65519;53.230;10.390;2023-08-06T10:16:47;100174.56;;;17.63;86.71
76627;BME280;65519;53.230;10.390;2023-08-06T10:19:15;100168.41;;;17.66;87.01
76627;BME280;65519;53.230;10.390;2023-08-06T10:22:15;100162.69;;;17.80;86.48
76627;BME280;65519;53.230;10.390;2023-08-06T10:24:57;100160.22;;;17.87;86.18
76627;BME280;65519;53.230;10.390;2023-08-06T10:27:31;100165.09;;;17.90;86.46
76627;BME280;65519;53.230;10.390;2023-08-06T10:30:25;100160.53;;;17.94;88.02
76627;BME280;65519;53.230;10.390;2023-08-06T10:32:56;100161.16;;;18.00;84.63
76627;BME280;65519;53.230;10.390;2023-08-06T10:38:19;100158.06;;;18.31;84.11
76627;BME280;65519;53.230;10.390;2023-08-06T10:40:49;100158.88;;;18.31;83.44
76627;BME280;65519;53.230;10.390;2023-08-06T10:43:25;100154.66;;;18.34;82.94
76627;BME280;65519;53.230;10.390;2023-08-06T10:45:52;100148.94;;;18.39;85.48
76627;BME280;65519;53.230;10.390;2023-08-06T10:48:29;100153.78;;;18.42;85.31
76627;BME280;65519;53.230;10.390;2023-08-06T10:50:56;100148.75;;;18.44;82.92
76627;BME280;65519;53.230;10.390;2023-08-06T10:53:21;100144.22;;;18.39;82.81
76627;BME280;65519;53.230;10.390;2023-08-06T10:55:47;100137.88;;;18.39;83.06
76627;BME280;65519;53.230;10.390;2023-08-06T10:58:15;100140.00;;;18.42;83.30
76627;BME280;65519;53.230;10.390;2023-08-06T11:00:42;100132.13;;;18.52;82.42
76627;BME280;65519;53.230;10.390;2023-08-06T11:03:08;100126.13;;;18.59;83.57
76627;BME280;65519;53.230;10.390;2023-08-06T11:05:35;100128.66;;;18.64;81.53
76627;BME280;65519;53.230;10.390;2023-08-06T11:08:00;100125.63;;;18.78;84.13
76627;BME280;65519;53.230;10.390;2023-08-06T11:10:26;100113.13;;;18.80;80.31
76627;BME280;65519;53.230;10.390;2023-08-06T11:12:51;100124.88;;;18.89;80.78
76627;BME280;65519;53.230;10.390;2023-08-06T11:15:17;100126.19;;;18.92;82.40
76627;BME280;65519;53.230;10.390;2023-08-06T11:17:42;100121.72;;;18.79;78.80
76627;BME280;65519;53.230;10.390;2023-08-06T11:20:08;100111.69;;;18.74;79.54
76627;BME280;65519;53.230;10.390;2023-08-06T11:22:36;100110.75;;;18.70;79.47
76627;BME280;65519;53.230;10.390;2023-08-06T11:25:02;100116.53;;;18.77;80.42
76627;BME280;65519;53.230;10.390;2023-08-06T11:27:27;100115.88;;;18.80;82.07
76627;BME280;65519;53.230;10.390;2023-08-06T11:29:54;100120.19;;;18.69;79.75
76627;BME280;65519;53.230;10.390;2023-08-06T11:32:19;100114.44;;;18.74;80.64
76627;BME280;65519;53.230;10.390;2023-08-06T11:34:45;100115.41;;;18.78;81.27
76627;BME280;65519;53.230;10.390;2023-08-06T11:37:11;100116.81;;;18.64;79.93
76627;BME280;65519;53.230;10.390;2023-08-06T11:39:37;100114.66;;;18.69;80.33
76627;BME280;65519;53.230;10.390;2023-08-06T11:42:05;100113.31;;;18.75;82.01
76627;BME280;65519;53.230;10.390;2023-08-06T11:44:32;100114.25;;;18.79;80.74
76627;BME280;65519;53.230;10.390;2023-08-06T11:47:03;100113.13;;;18.80;80.87
76627;BME280;65519;53.230;10.390;2023-08-06T11:52:14;100113.63;;;18.74;80.54
76627;BME280;65519;53.230;10.390;2023-08-06T11:54:40;100109.53;;;18.80;80.08
76627;BME280;65519;53.230;10.390;2023-08-06T11:57:06;100107.19;;;18.90;81.16
76627;BME280;65519;53.230;10.390;2023-08-06T11:59:31;100096.31;;;18.85;78.95
76627;BME280;65519;53.230;10.390;2023-08-06T12:01:57;100098.16;;;18.81;78.51
76627;BME280;65519;53.230;10.390;2023-08-06T12:04:23;100086.34;;;18.72;78.15
76627;BME280;65519;53.230;10.390;2023-08-06T12:06:48;100100.13;;;18.81;80.09
76627;BME280;65519;53.230;10.390;2023-08-06T12:09:14;100089.75;;;18.78;79.42
76627;BME280;65519;53.230;10.390;2023-08-06T12:11:39;100094.69;;;18.84;78.67
76627;BME280;65519;53.230;10.390;2023-08-06T12:14:05;100091.13;;;18.84;81.29
76627;BME280;65519;53.230;10.390;2023-08-06T12:16:30;100080.41;;;18.82;78.39
76627;BME280;65519;53.230;10.390;2023-08-06T12:18:56;100076.09;;;18.93;79.82
76627;BME280;65519;53.230;10.390;2023-08-06T12:21:21;100081.47;;;19.11;79.55
76627;BME280;65519;53.230;10.390;2023-08-06T12:23:47;100072.41;;;19.22;82.57
76627;BME280;65519;53.230;10.390;2023-08-06T12:26:12;100072.78;;;19.33;78.66
76627;BME280;65519;53.230;10.390;2023-08-06T12:28:38;100075.44;;;19.42;78.23
76627;BME280;65519;53.230;10.390;2023-08-06T12:31:03;100060.59;;;19.46;78.49
76627;BME280;65519;53.230;10.390;2023-08-06T12:33:29;100068.34;;;19.65;80.06
76627;BME280;65519;53.230;10.390;2023-08-06T12:35:54;100060.63;;;19.71;77.41
76627;BME280;65519;53.230;10.390;2023-08-06T12:38:20;100069.03;;;19.74;77.08
76627;BME280;65519;53.230;10.390;2023-08-06T12:40:45;100063.72;;;19.81;77.97
76627;BME280;65519;53.230;10.390;2023-08-06T12:43:11;100068.81;;;19.79;76.61
76627;BME280;65519;53.230;10.390;2023-08-06T12:45:36;100058.53;;;19.80;76.05
76627;BME280;65519;53.230;10.390;2023-08-06T12:48:03;100064.19;;;19.59;76.76
76627;BME280;65519;53.230;10.390;2023-08-06T12:50:29;100055.53;;;19.60;76.84
76627;BME280;65519;53.230;10.390;2023-08-06T12:52:54;100054.53;;;19.65;76.24